sensor_id;sensor_type;location;lat;lon;timestamp;pressure;altitude;pressure_sealevel;temperature;humidity
54194;BME280;40102;50.906;6.972;2023-04-02T00:09:00;100035.81;;;10.07;100.00
54194;BME280;40102;50.906;6.972;2023-04-02T00:11:33;100038.09;;;10.14;100.00
54194;BME280;40102;50.906;6.972;2023-04-02T00:14:01;100041.28;;;10.20;100.00
54194;BME280;40102;50.906;6.972;2023-04-02T00:16:28;100046.31;;;10.25;99.62
54194;BME280;40102;50.906;6.972;2023-04-02T00:18:56;100056.81;;;10.28;99.25
54194;BME280;40102;50.906;6.972;2023-04-02T00:21:31;100056.59;;;10.31;98.87
54194;BME280;40102;50.906;6.972;2023-04-02T00:24:00;100062.81;;;10.31;98.18
54194;BME280;40102;50.906;6.972;2023-04-02T00:26:31;100061.09;;;10.30;98.16
54194;BME280;40102;50.906;6.972;2023-04-02T00:29:04;100074.47;;;10.30;97.76
54194;BME280;40102;50.906;6.972;2023-04-02T00:31:31;100076.94;;;10.33;97.88
54194;BME280;40102;50.906;6.972;2023-04-02T00:34:00;100075.22;;;10.32;97.48
54194;BME280;40102;50.906;6.972;2023-04-02T00:36:28;100082.19;;;10.35;97.28
54194;BME280;40102;50.906;6.972;2023-04-02T00:38:58;100085.72;;;10.35;97.06
54194;BME280;40102;50.906;6.972;2023-04-02T00:41:27;100084.75;;;10.36;96.83
54194;BME280;40102;50.906;6.972;2023-04-02T00:43:55;100088.28;;;10.37;96.73
54194;BME280;40102;50.906;6.972;2023-04-02T00:46:28;100087.22;;;10.40;96.67
54194;BME280;40102;50.906;6.972;2023-04-02T00:49:22;100093.63;;;10.37;96.33
54194;BME280;40102;50.906;6.972;2023-04-02T00:52:00;100102.53;;;10.37;96.28
54194;BME280;40102;50.906;6.972;2023-04-02T00:54:31;100107.00;;;10.37;96.14
54194;BME280;40102;50.906;6.972;2023-04-02T00:56:59;100114.06;;;10.38;96.01
54194;BME280;40102;50.906;6.972;2023-04-02T00:59:46;100113.13;;;10.39;95.91
54194;BME280;40102;50.906;6.972;2023-04-02T01:05:35;100115.97;;;10.36;95.60
54194;BME280;40102;50.906;6.972;2023-04-02T01:07:50;100123.81;;;10.39;95.55
54194;BME280;40102;50.906;6.972;2023-04-02T01:16:05;100143.25;;;10.41;95.21
54194;BME280;40102;50.906;6.972;2023-04-02T01:24:04;100151.16;;;10.43;94.81
54194;BME280;40102;50.906;6.972;2023-04-02T01:26:57;100154.25;;;10.36;94.41
54194;BME280;40102;50.906;6.972;2023-04-02T01:29:30;100157.78;;;10.37;94.61
54194;BME280;40102;50.906;6.972;2023-04-02T01:32:00;100167.72;;;10.35;94.07
54194;BME280;40102;50.906;6.972;2023-04-02T01:34:27;100169.66;;;10.33;93.81
54194;BME280;40102;50.906;6.972;2023-04-02T01:37:10;100166.78;;;10.22;93.49
54194;BME280;40102;50.906;6.972;2023-04-02T01:40:08;100177.38;;;10.23;93.37
54194;BME280;40102;50.906;6.972;2023-04-02T01:45:31;100185.59;;;10.20;93.30
54194;BME280;40102;50.906;6.972;2023-04-02T01:48:01;100193.59;;;10.20;93.16
54194;BME280;40102;50.906;6.972;2023-04-02T01:50:33;100191.00;;;10.19;92.55
54194;BME280;40102;50.906;6.972;2023-04-02T01:53:07;100203.88;;;10.12;92.04
54194;BME280;40102;50.906;6.972;2023-04-02T01:55:47;100210.09;;;10.13;92.29
54194;BME280;40102;50.906;6.972;2023-04-02T01:58:17;100214.56;;;10.12;92.34
54194;BME280;40102;50.906;6.972;2023-04-02T02:01:03;100216.19;;;10.15;92.33
54194;BME280;40102;50.906;6.972;2023-04-02T02:03:32;100217.16;;;10.14;92.06
54194;BME280;40102;50.906;6.972;2023-04-02T02:05:59;100233.94;;;10.16;91.76
54194;BME280;40102;50.906;6.972;2023-04-02T02:10:59;100239.91;;;10.21;90.99
54194;BME280;40102;50.906;6.972;2023-04-02T02:13:25;100245.31;;;10.19;90.45
54194;BME280;40102;50.906;6.972;2023-04-02T02:15:50;100252.47;;;10.19;90.17
54194;BME280;40102;50.906;6.972;2023-04-02T02:18:19;100258.78;;;10.18;89.78
54194;BME280;40102;50.906;6.972;2023-04-02T02:20:47;100266.03;;;10.16;89.40
54194;BME280;40102;50.906;6.972;2023-04-02T02:23:14;100269.75;;;10.13;89.08
54194;BME280;40102;50.906;6.972;2023-04-02T02:25:40;100275.94;;;10.14;89.10
54194;BME280;40102;50.906;6.972;2023-04-02T02:28:18;100271.56;;;10.13;89.08
54194;BME280;40102;50.906;6.972;2023-04-02T02:36:12;100297.78;;;10.06;88.31
54194;BME280;40102;50.906;6.972;2023-04-02T02:38:54;100300.47;;;10.06;88.13
54194;BME280;40102;50.906;6.972;2023-04-02T02:41:34;100306.75;;;10.05;87.95
54194;BME280;40102;50.906;6.972;2023-04-02T02:46:34;100314.94;;;10.02;87.24
54194;BME280;40102;50.906;6.972;2023-04-02T02:49:03;100325.06;;;9.97;87.31
54194;BME280;40102;50.906;6.972;2023-04-02T02:52:05;100326.00;;;9.96;87.38
54194;BME280;40102;50.906;6.972;2023-04-02T02:54:48;100327.91;;;9.94;87.06
54194;BME280;40102;50.906;6.972;2023-04-02T02:57:24;100328.34;;;9.86;86.66
54194;BME280;40102;50.906;6.972;2023-04-02T02:59:53;100336.47;;;9.85;86.44
54194;BME280;40102;50.906;6.972;2023-04-02T03:02:22;100341.72;;;9.86;86.40
54194;BME280;40102;50.906;6.972;2023-04-02T03:04:49;100343.53;;;9.86;86.72
54194;BME280;40102;50.906;6.972;2023-04-02T03:07:18;100346.19;;;9.86;86.40
54194;BME280;40102;50.906;6.972;2023-04-02T03:15:21;100370.59;;;9.80;85.74
54194;BME280;40102;50.906;6.972;2023-04-02T03:23:16;100390.31;;;9.77;86.01
54194;BME280;40102;50.906;6.972;2023-04-02T03:26:05;100392.06;;;9.78;85.53
54194;BME280;40102;50.906;6.972;2023-04-02T03:28:33;100395.59;;;9.79;85.40
54194;BME280;40102;50.906;6.972;2023-04-02T03:31:09;100402.72;;;9.78;85.19
54194;BME280;40102;50.906;6.972;2023-04-02T03:33:41;100408.00;;;9.80;85.31
54194;BME280;40102;50.906;6.972;2023-04-02T03:38:46;100424.09;;;9.78;84.71
54194;BME280;40102;50.906;6.972;2023-04-02T03:41:36;100428.50;;;9.79;84.71
54194;BME280;40102;50.906;6.972;2023-04-02T03:47:01;100433.84;;;9.79;84.07
54194;BME280;40102;50.906;6.972;2023-04-02T03:50:02;100440.22;;;9.77;83.88
54194;BME280;40102;50.906;6.972;2023-04-02T03:52:29;100445.72;;;9.73;83.73
54194;BME280;40102;50.906;6.972;2023-04-02T03:54:56;100446.84;;;9.69;83.79
54194;BME280;40102;50.906;6.972;2023-04-02T03:57:34;100460.97;;;9.71;83.31
54194;BME280;40102;50.906;6.972;2023-04-02T04:00:13;100462.97;;;9.68;83.17
54194;BME280;40102;50.906;6.972;2023-04-02T04:02:48;100461.16;;;9.68;83.22
54194;BME280;40102;50.906;6.972;2023-04-02T04:05:35;100470.13;;;9.67;83.11
54194;BME280;40102;50.906;6.972;2023-04-02T04:08:05;100481.66;;;9.68;83.05
54194;BME280;40102;50.906;6.972;2023-04-02T04:10:33;100487.94;;;9.67;82.58
54194;BME280;40102;50.906;6.972;2023-04-02T04:13:10;100488.97;;;9.64;82.24
54194;BME280;40102;50.906;6.972;2023-04-02T04:15:46;100506.19;;;9.59;81.99
54194;BME280;40102;50.906;6.972;2023-04-02T04:18:40;100504.56;;;9.56;82.58
54194;BME280;40102;50.906;6.972;2023-04-02T04:21:18;100513.50;;;9.55;82.46
54194;BME280;40102;50.906;6.972;2023-04-02T04:23:54;100512.81;;;9.52;82.16
54194;BME280;40102;50.906;6.972;2023-04-02T04:26:32;100518.84;;;9.55;82.52
54194;BME280;40102;50.906;6.972;2023-04-02T04:29:09;100525.22;;;9.53;82.29
54194;BME280;40102;50.906;6.972;2023-04-02T04:31:45;100533.22;;;9.53;82.24
54194;BME280;40102;50.906;6.972;2023-04-02T04:34:35;100539.44;;;9.53;82.12
54194;BME280;40102;50.906;6.972;2023-04-02T04:37:16;100547.38;;;9.55;82.43
54194;BME280;40102;50.906;6.972;2023-04-02T04:39:56;100561.41;;;9.58;82.35
54194;BME280;40102;50.906;6.972;2023-04-02T04:42:28;100568.41;;;9.61;81.95
54194;BME280;40102;50.906;6.972;2023-04-02T04:48:02;100577.34;;;9.60;81.08
54194;BME280;40102;50.906;6.972;2023-04-02T04:52:54;100587.25;;;9.58;80.71
54194;BME280;40102;50.906;6.972;2023-04-02T04:55:36;100591.72;;;9.57;80.70
54194;BME280;40102;50.906;6.972;2023-04-02T04:58:22;100606.97;;;9.55;80.56
54194;BME280;40102;50.906;6.972;2023-04-02T05:00:59;100604.31;;;9.55;80.37
54194;BME280;40102;50.906;6.972;2023-04-02T05:06:10;100619.47;;;9.55;79.73
54194;BME280;40102;50.906;6.972;2023-04-02T05:08:43;100610.81;;;9.50;79.49
54194;BME280;40102;50.906;6.972;2023-04-02T05:11:14;100628.66;;;9.49;79.33
54194;BME280;40102;50.906;6.972;2023-04-02T05:13:55;100638.47;;;9.49;79.34
54194;BME280;40102;50.906;6.972;2023-04-02T05:19:07;100641.13;;;9.49;79.32
54194;BME280;40102;50.906;6.972;2023-04-02T05:21:54;100646.47;;;9.49;79.47
54194;BME280;40102;50.906;6.972;2023-04-02T05:24:35;100657.94;;;9.51;79.52
54194;BME280;40102;50.906;6.972;2023-04-02T05:29:40;100653.78;;;9.45;78.85
54194;BME280;40102;50.906;6.972;2023-04-02T05:32:34;100667.13;;;9.45;79.02
54194;BME280;40102;50.906;6.972;2023-04-02T05:35:01;100669.66;;;9.48;78.68
54194;BME280;40102;50.906;6.972;2023-04-02T05:37:30;100671.44;;;9.48;78.68
54194;BME280;40102;50.906;6.972;2023-04-02T05:39:59;100674.38;;;9.43;77.81
54194;BME280;40102;50.906;6.972;2023-04-02T05:42:34;100691.00;;;9.48;77.70
54194;BME280;40102;50.906;6.972;2023-04-02T05:47:33;100689.50;;;9.43;77.20
54194;BME280;40102;50.906;6.972;2023-04-02T05:52:37;100706.63;;;9.38;77.11
54194;BME280;40102;50.906;6.972;2023-04-02T05:57:46;100723.59;;;9.37;77.67
54194;BME280;40102;50.906;6.972;2023-04-02T06:03:07;100742.91;;;9.43;77.58
54194;BME280;40102;50.906;6.972;2023-04-02T06:05:41;100756.25;;;9.43;77.68
54194;BME280;40102;50.906;6.972;2023-04-02T06:10:44;100753.81;;;9.38;76.83
54194;BME280;40102;50.906;6.972;2023-04-02T06:13:17;100762.69;;;9.38;76.97
54194;BME280;40102;50.906;6.972;2023-04-02T06:15:43;100771.00;;;9.32;76.68
54194;BME280;40102;50.906;6.972;2023-04-02T06:20:41;100780.97;;;9.29;77.02
54194;BME280;40102;50.906;6.972;2023-04-02T06:23:15;100787.88;;;9.33;77.14
54194;BME280;40102;50.906;6.972;2023-04-02T06:25:47;100788.75;;;9.33;77.05
54194;BME280;40102;50.906;6.972;2023-04-02T06:28:20;100805.63;;;9.34;77.02
54194;BME280;40102;50.906;6.972;2023-04-02T06:30:51;100797.84;;;9.29;76.71
54194;BME280;40102;50.906;6.972;2023-04-02T06:33:18;100803.13;;;9.31;76.62
54194;BME280;40102;50.906;6.972;2023-04-02T06:35:44;100818.19;;;9.32;76.78
54194;BME280;40102;50.906;6.972;2023-04-02T06:38:23;100818.34;;;9.29;76.50
54194;BME280;40102;50.906;6.972;2023-04-02T06:40:57;100815.03;;;9.24;76.48
54194;BME280;40102;50.906;6.972;2023-04-02T06:43:54;100831.25;;;9.19;77.14
54194;BME280;40102;50.906;6.972;2023-04-02T06:46:26;100826.88;;;9.18;77.60
54194;BME280;40102;50.906;6.972;2023-04-02T06:49:45;100851.69;;;9.20;77.38
54194;BME280;40102;50.906;6.972;2023-04-02T06:51:46;100848.22;;;9.18;77.51
54194;BME280;40102;50.906;6.972;2023-04-02T06:54:16;100855.13;;;9.22;77.36
54194;BME280;40102;50.906;6.972;2023-04-02T06:56:45;100869.41;;;9.21;77.66
54194;BME280;40102;50.906;6.972;2023-04-02T06:59:12;100865.38;;;9.13;77.45
54194;BME280;40102;50.906;6.972;2023-04-02T07:01:46;100874.19;;;9.15;77.74
54194;BME280;40102;50.906;6.972;2023-04-02T07:04:13;100883.13;;;9.14;77.54
54194;BME280;40102;50.906;6.972;2023-04-02T07:06:38;100886.88;;;9.09;76.99
54194;BME280;40102;50.906;6.972;2023-04-02T07:09:04;100892.16;;;9.11;77.33
54194;BME280;40102;50.906;6.972;2023-04-02T07:11:31;100897.47;;;9.11;76.86
54194;BME280;40102;50.906;6.972;2023-04-02T07:13:56;100912.63;;;9.11;76.73
54194;BME280;40102;50.906;6.972;2023-04-02T07:16:23;100917.88;;;9.12;76.97
54194;BME280;40102;50.906;6.972;2023-04-02T07:18:53;100930.28;;;9.13;76.75
54194;BME280;40102;50.906;6.972;2023-04-02T07:21:20;100932.97;;;9.13;76.75
54194;BME280;40102;50.906;6.972;2023-04-02T07:23:45;100927.13;;;9.05;76.37
54194;BME280;40102;50.906;6.972;2023-04-02T07:26:31;100942.84;;;9.11;76.56
54194;BME280;40102;50.906;6.972;2023-04-02T07:28:57;100947.31;;;9.11;76.39
54194;BME280;40102;50.906;6.972;2023-04-02T07:31:24;100950.91;;;9.09;75.80
54194;BME280;40102;50.906;6.972;2023-04-02T07:33:51;100953.53;;;9.11;75.82
54194;BME280;40102;50.906;6.972;2023-04-02T07:36:20;100965.00;;;9.13;75.70
54194;BME280;40102;50.906;6.972;2023-04-02T07:38:46;100977.41;;;9.14;75.45
54194;BME280;40102;50.906;6.972;2023-04-02T07:41:12;100977.31;;;9.16;74.84
54194;BME280;40102;50.906;6.972;2023-04-02T07:43:38;100983.00;;;9.08;74.22
54194;BME280;40102;50.906;6.972;2023-04-02T07:46:04;100992.94;;;9.04;74.90
54194;BME280;40102;50.906;6.972;2023-04-02T07:48:30;100987.81;;;9.00;74.62
54194;BME280;40102;50.906;6.972;2023-04-02T07:50:56;100989.69;;;8.98;74.96
54194;BME280;40102;50.906;6.972;2023-04-02T07:53:39;100997.19;;;9.29;85.86
54194;BME280;40102;50.906;6.972;2023-04-02T07:56:06;101008.22;;;9.96;84.48
54194;BME280;40102;50.906;6.972;2023-04-02T07:58:32;101007.34;;;10.49;79.79
54194;BME280;40102;50.906;6.972;2023-04-02T08:00:59;101018.06;;;10.84;75.65
54194;BME280;40102;50.906;6.972;2023-04-02T08:03:25;101010.63;;;11.06;73.17
54194;BME280;40102;50.906;6.972;2023-04-02T08:05:52;101017.88;;;11.04;69.91
54194;BME280;40102;50.906;6.972;2023-04-02T08:08:22;101027.34;;;10.77;68.25
54194;BME280;40102;50.906;6.972;2023-04-02T08:10:49;101027.34;;;10.42;68.22
54194;BME280;40102;50.906;6.972;2023-04-02T08:13:15;101035.06;;;10.12;69.21
54194;BME280;40102;50.906;6.972;2023-04-02T08:15:41;101035.31;;;9.89;70.35
54194;BME280;40102;50.906;6.972;2023-04-02T08:18:07;101046.78;;;9.72;71.23
54194;BME280;40102;50.906;6.972;2023-04-02T08:20:33;101050.81;;;9.62;71.90
54194;BME280;40102;50.906;6.972;2023-04-02T08:22:59;101054.84;;;9.52;72.44
54194;BME280;40102;50.906;6.972;2023-04-02T08:25:25;101070.88;;;9.52;72.83
54194;BME280;40102;50.906;6.972;2023-04-02T08:27:51;101070.28;;;9.45;72.93
54194;BME280;40102;50.906;6.972;2023-04-02T08:30:19;101088.13;;;9.45;73.42
54194;BME280;40102;50.906;6.972;2023-04-02T08:32:46;101086.59;;;9.39;72.98
54194;BME280;40102;50.906;6.972;2023-04-02T08:35:13;101088.81;;;9.29;73.20
54194;BME280;40102;50.906;6.972;2023-04-02T08:37:40;101099.53;;;9.28;73.37
54194;BME280;40102;50.906;6.972;2023-04-02T08:40:07;101104.16;;;9.24;73.66
54194;BME280;40102;50.906;6.972;2023-04-02T08:42:47;101113.97;;;9.24;73.43
54194;BME280;40102;50.906;6.972;2023-04-02T08:45:25;101113.16;;;9.22;73.38
54194;BME280;40102;50.906;6.972;2023-04-02T08:47:57;101124.03;;;9.17;72.99
54194;BME280;40102;50.906;6.972;2023-04-02T08:52:56;101126.72;;;9.17;73.18
54194;BME280;40102;50.906;6.972;2023-04-02T08:55:39;101138.25;;;9.18;72.77
54194;BME280;40102;50.906;6.972;2023-04-02T08:58:32;101146.25;;;9.18;73.17
54194;BME280;40102;50.906;6.972;2023-04-02T09:01:04;101153.41;;;9.17;73.11
54194;BME280;40102;50.906;6.972;2023-04-02T09:03:37;101158.59;;;9.20;72.79
54194;BME280;40102;50.906;6.972;2023-04-02T09:06:06;101152.66;;;9.14;72.32
54194;BME280;40102;50.906;6.972;2023-04-02T09:08:34;101153.66;;;9.11;72.45
54194;BME280;40102;50.906;6.972;2023-04-02T09:11:17;101174.94;;;9.13;72.49
54194;BME280;40102;50.906;6.972;2023-04-02T09:13:45;101166.06;;;9.12;72.53
54194;BME280;40102;50.906;6.972;2023-04-02T09:16:15;101171.53;;;9.09;72.59
54194;BME280;40102;50.906;6.972;2023-04-02T09:18:42;101179.28;;;9.15;72.42
54194;BME280;40102;50.906;6.972;2023-04-02T09:23:46;101192.44;;;9.20;71.86
54194;BME280;40102;50.906;6.972;2023-04-02T09:26:30;101195.16;;;9.18;72.08
54194;BME280;40102;50.906;6.972;2023-04-02T09:29:24;101194.31;;;9.18;72.08
54194;BME280;40102;50.906;6.972;2023-04-02T09:32:11;101199.69;;;9.16;71.82
54194;BME280;40102;50.906;6.972;2023-04-02T09:34:38;101212.13;;;9.17;71.54
54194;BME280;40102;50.906;6.972;2023-04-02T09:37:13;101216.53;;;9.18;71.84
54194;BME280;40102;50.906;6.972;2023-04-02T09:39:40;101224.78;;;9.12;71.72
54194;BME280;40102;50.906;6.972;2023-04-02T09:42:07;101223.03;;;9.11;72.32
54194;BME280;40102;50.906;6.972;2023-04-02T09:44:52;101236.50;;;9.08;72.29
54194;BME280;40102;50.906;6.972;2023-04-02T09:47:25;101240.91;;;9.09;72.38
54194;BME280;40102;50.906;6.972;2023-04-02T09:49:51;101240.13;;;9.07;71.91
54194;BME280;40102;50.906;6.972;2023-04-02T09:52:28;101258.00;;;9.05;72.29
54194;BME280;40102;50.906;6.972;2023-04-02T09:57:40;101260.66;;;9.05;72.56
54194;BME280;40102;50.906;6.972;2023-04-02T10:02:43;101272.19;;;9.05;72.03
54194;BME280;40102;50.906;6.972;2023-04-02T10:05:18;101280.16;;;9.07;71.99
54194;BME280;40102;50.906;6.972;2023-04-02T10:07:46;101282.81;;;9.07;71.91
54194;BME280;40102;50.906;6.972;2023-04-02T10:10:32;101293.63;;;9.04;71.50
54194;BME280;40102;50.906;6.972;2023-04-02T10:13:03;101293.50;;;9.07;71.69
54194;BME280;40102;50.906;6.972;2023-04-02T10:15:39;101296.09;;;9.08;71.89
54194;BME280;40102;50.906;6.972;2023-04-02T10:21:00;101303.16;;;9.09;71.14
54194;BME280;40102;50.906;6.972;2023-04-02T10:23:30;101312.22;;;9.05;71.37
54194;BME280;40102;50.906;6.972;2023-04-02T10:28:49;101314.03;;;9.05;71.79
54194;BME280;40102;50.906;6.972;2023-04-02T10:31:23;101331.84;;;9.04;71.74
54194;BME280;40102;50.906;6.972;2023-04-02T10:33:59;101339.84;;;9.04;71.99
54194;BME280;40102;50.906;6.972;2023-04-02T10:36:55;101332.47;;;9.11;72.21
54194;BME280;40102;50.906;6.972;2023-04-02T10:39:33;101342.16;;;9.14;72.46
54194;BME280;40102;50.906;6.972;2023-04-02T10:42:18;101344.56;;;9.20;72.45
54194;BME280;40102;50.906;6.972;2023-04-02T10:44:56;101342.16;;;9.14;71.71
54194;BME280;40102;50.906;6.972;2023-04-02T10:53:13;101348.31;;;8.92;72.30
54194;BME280;40102;50.906;6.972;2023-04-02T10:55:43;101359.63;;;8.99;72.44
54194;BME280;40102;50.906;6.972;2023-04-02T10:58:30;101363.00;;;9.04;77.71
54194;BME280;40102;50.906;6.972;2023-04-02T11:01:03;101369.72;;;9.14;73.52
54194;BME280;40102;50.906;6.972;2023-04-02T11:03:37;101376.91;;;9.12;72.11
54194;BME280;40102;50.906;6.972;2023-04-02T11:06:31;101377.72;;;9.14;72.26
54194;BME280;40102;50.906;6.972;2023-04-02T11:09:01;101386.47;;;9.18;71.53
54194;BME280;40102;50.906;6.972;2023-04-02T11:11:35;101391.63;;;9.22;71.64
54194;BME280;40102;50.906;6.972;2023-04-02T11:14:15;101395.97;;;9.25;71.02
54194;BME280;40102;50.906;6.972;2023-04-02T11:16:42;101396.91;;;9.24;70.58
54194;BME280;40102;50.906;6.972;2023-04-02T11:24:05;101405.28;;;9.36;86.45
54194;BME280;40102;50.906;6.972;2023-04-02T11:29:14;101412.25;;;10.86;88.78
54194;BME280;40102;50.906;6.972;2023-04-02T11:31:42;101402.56;;;11.40;84.66
54194;BME280;40102;50.906;6.972;2023-04-02T11:37:28;101412.00;;;12.53;77.29
54194;BME280;40102;50.906;6.972;2023-04-02T11:39:56;101410.44;;;12.82;74.43
54194;BME280;40102;50.906;6.972;2023-04-02T11:42:28;101418.75;;;12.78;71.77
54194;BME280;40102;50.906;6.972;2023-04-02T11:44:57;101421.28;;;12.63;68.95
54194;BME280;40102;50.906;6.972;2023-04-02T11:47:25;101427.88;;;12.23;64.97
54194;BME280;40102;50.906;6.972;2023-04-02T11:55:32;101438.47;;;11.17;65.03
54194;BME280;40102;50.906;6.972;2023-04-02T11:58:24;101440.59;;;10.90;65.18
54194;BME280;40102;50.906;6.972;2023-04-02T12:03:45;101452.81;;;10.56;65.56
54194;BME280;40102;50.906;6.972;2023-04-02T12:09:22;101456.56;;;10.52;71.05
54194;BME280;40102;50.906;6.972;2023-04-02T12:11:50;101461.97;;;11.10;70.48
54194;BME280;40102;50.906;6.972;2023-04-02T12:17:04;101459.16;;;12.06;64.32
54194;BME280;40102;50.906;6.972;2023-04-02T12:19:38;101458.28;;;11.88;61.61
54194;BME280;40102;50.906;6.972;2023-04-02T12:22:04;101464.22;;;11.57;60.54
54194;BME280;40102;50.906;6.972;2023-04-02T12:24:29;101473.19;;;11.18;61.43
54194;BME280;40102;50.906;6.972;2023-04-02T12:27:23;101479.59;;;10.95;63.76
54194;BME280;40102;50.906;6.972;2023-04-02T12:29:53;101479.28;;;10.83;63.90
54194;BME280;40102;50.906;6.972;2023-04-02T12:32:29;101489.00;;;10.65;63.83
54194;BME280;40102;50.906;6.972;2023-04-02T12:34:56;101495.81;;;10.52;64.08
54194;BME280;40102;50.906;6.972;2023-04-02T12:37:27;101492.88;;;10.37;64.09
54194;BME280;40102;50.906;6.972;2023-04-02T12:40:02;101492.72;;;10.20;64.44
54194;BME280;40102;50.906;6.972;2023-04-02T12:42:35;101499.28;;;10.12;64.85
54194;BME280;40102;50.906;6.972;2023-04-02T12:45:03;101497.69;;;10.07;64.80
54194;BME280;40102;50.906;6.972;2023-04-02T12:47:29;101502.47;;;9.99;65.06
54194;BME280;40102;50.906;6.972;2023-04-02T12:49:56;101511.53;;;9.95;65.62
54194;BME280;40102;50.906;6.972;2023-04-02T12:52:24;101508.19;;;9.90;65.99
54194;BME280;40102;50.906;6.972;2023-04-02T12:54:54;101513.47;;;9.92;66.14
54194;BME280;40102;50.906;6.972;2023-04-02T12:57:41;101511.59;;;9.94;66.35
54194;BME280;40102;50.906;6.972;2023-04-02T13:02:45;101519.50;;;9.97;65.92
54194;BME280;40102;50.906;6.972;2023-04-02T13:05:12;101517.94;;;9.91;65.50
54194;BME280;40102;50.906;6.972;2023-04-02T13:07:38;101521.75;;;9.86;65.53
54194;BME280;40102;50.906;6.972;2023-04-02T13:10:24;101524.41;;;9.86;65.80
54194;BME280;40102;50.906;6.972;2023-04-02T13:12:57;101531.50;;;9.87;65.88
54194;BME280;40102;50.906;6.972;2023-04-02T13:15:30;101531.63;;;9.84;65.81
54194;BME280;40102;50.906;6.972;2023-04-02T13:20:36;101539.69;;;9.82;66.08
54194;BME280;40102;50.906;6.972;2023-04-02T13:25:57;101544.16;;;9.82;65.88
54194;BME280;40102;50.906;6.972;2023-04-02T13:28:24;101546.16;;;9.77;65.98
54194;BME280;40102;50.906;6.972;2023-04-02T13:30:49;101548.06;;;9.73;66.16
54194;BME280;40102;50.906;6.972;2023-04-02T13:33:15;101549.88;;;9.72;66.29
54194;BME280;40102;50.906;6.972;2023-04-02T13:35:42;101549.81;;;9.74;65.97
54194;BME280;40102;50.906;6.972;2023-04-02T13:38:07;101554.34;;;9.72;65.62
54194;BME280;40102;50.906;6.972;2023-04-02T13:40:34;101547.94;;;9.76;65.67
54194;BME280;40102;50.906;6.972;2023-04-02T13:43:00;101555.28;;;9.71;64.95
54194;BME280;40102;50.906;6.972;2023-04-02T13:45:30;101564.28;;;9.68;64.71
54194;BME280;40102;50.906;6.972;2023-04-02T13:47:57;101556.44;;;9.64;64.54
54194;BME280;40102;50.906;6.972;2023-04-02T13:50:26;101567.25;;;9.61;64.98
54194;BME280;40102;50.906;6.972;2023-04-02T13:52:52;101568.22;;;9.58;65.25
54194;BME280;40102;50.906;6.972;2023-04-02T13:55:21;101578.78;;;9.61;65.37
54194;BME280;40102;50.906;6.972;2023-04-02T13:57:48;101577.94;;;9.61;64.82
54194;BME280;40102;50.906;6.972;2023-04-02T14:00:15;101573.09;;;9.70;67.38
54194;BME280;40102;50.906;6.972;2023-04-02T14:02:43;101569.56;;;9.70;65.38
54194;BME280;40102;50.906;6.972;2023-04-02T14:24:31;101611.50;;;9.68;64.89
54194;BME280;40102;50.906;6.972;2023-04-02T14:29:50;101613.22;;;9.69;64.96
54194;BME280;40102;50.906;6.972;2023-04-02T14:32:27;101618.56;;;9.69;64.41
54194;BME280;40102;50.906;6.972;2023-04-02T14:50:50;101640.09;;;9.41;63.70
54194;BME280;40102;50.906;6.972;2023-04-02T14:53:21;101634.97;;;9.35;62.95
54194;BME280;40102;50.906;6.972;2023-04-02T14:55:50;101642.16;;;9.33;63.02
54194;BME280;40102;50.906;6.972;2023-04-02T14:58:34;101642.22;;;9.31;63.26
54194;BME280;40102;50.906;6.972;2023-04-02T15:01:24;101650.13;;;9.34;62.72
54194;BME280;40102;50.906;6.972;2023-04-02T15:03:59;101658.03;;;9.37;62.66
54194;BME280;40102;50.906;6.972;2023-04-02T15:06:30;101658.19;;;9.33;62.28
54194;BME280;40102;50.906;6.972;2023-04-02T15:09:02;101675.06;;;9.33;61.91
54194;BME280;40102;50.906;6.972;2023-04-02T15:11:33;101677.91;;;9.29;61.21
54194;BME280;40102;50.906;6.972;2023-04-02T15:14:16;101673.56;;;9.26;61.37
54194;BME280;40102;50.906;6.972;2023-04-02T15:16:44;101672.72;;;9.24;61.40
54194;BME280;40102;50.906;6.972;2023-04-02T15:19:13;101678.84;;;9.28;61.37
54194;BME280;40102;50.906;6.972;2023-04-02T15:21:52;101672.56;;;9.29;60.99
54194;BME280;40102;50.906;6.972;2023-04-02T15:31:53;101680.84;;;9.21;60.00
54194;BME280;40102;50.906;6.972;2023-04-02T15:56:29;101722.38;;;9.03;60.32
54194;BME280;40102;50.906;6.972;2023-04-02T15:59:22;101722.34;;;9.05;59.56
54194;BME280;40102;50.906;6.972;2023-04-02T16:10:38;101755.63;;;8.93;60.20
54194;BME280;40102;50.906;6.972;2023-04-02T16:13:17;101750.09;;;8.99;59.11
54194;BME280;40102;50.906;6.972;2023-04-02T16:16:00;101758.03;;;9.01;58.34
54194;BME280;40102;50.906;6.972;2023-04-02T16:21:27;101759.06;;;8.97;57.39
54194;BME280;40102;50.906;6.972;2023-04-02T16:23:55;101772.50;;;8.94;56.57
54194;BME280;40102;50.906;6.972;2023-04-02T16:29:09;101779.97;;;8.83;56.91
54194;BME280;40102;50.906;6.972;2023-04-02T16:31:56;101785.59;;;8.73;57.13
54194;BME280;40102;50.906;6.972;2023-04-02T16:34:35;101786.53;;;8.72;56.90
54194;BME280;40102;50.906;6.972;2023-04-02T17:01:20;101842.19;;;8.55;55.24
54194;BME280;40102;50.906;6.972;2023-04-02T17:04:15;101827.97;;;8.55;55.60
54194;BME280;40102;50.906;6.972;2023-04-02T17:12:27;101836.78;;;8.57;54.44
54194;BME280;40102;50.906;6.972;2023-04-02T17:15:31;101846.59;;;8.56;54.75
54194;BME280;40102;50.906;6.972;2023-04-02T17:17:59;101852.88;;;8.54;55.26
54194;BME280;40102;50.906;6.972;2023-04-02T17:20:26;101853.94;;;8.48;54.59
54194;BME280;40102;50.906;6.972;2023-04-02T17:22:53;101853.06;;;8.48;55.01
54194;BME280;40102;50.906;6.972;2023-04-02T17:25:29;101859.19;;;8.51;55.26
54194;BME280;40102;50.906;6.972;2023-04-02T17:27:56;101864.34;;;8.57;55.41
54194;BME280;40102;50.906;6.972;2023-04-02T17:30:38;101879.34;;;8.61;55.15
54194;BME280;40102;50.906;6.972;2023-04-02T17:33:18;101882.03;;;8.60;54.74
54194;BME280;40102;50.906;6.972;2023-04-02T17:41:12;101890.13;;;8.57;55.16